createdAt,value
2017-12-27T00:00:16.341Z,89.87
2017-12-27T00:02:49.588Z,90.15
2017-12-27T00:05:22.795Z,90.05
2017-12-27T00:07:55.990Z,90.09
2017-12-27T00:10:29.123Z,89.99
2017-12-27T00:13:02.273Z,89.64
2017-12-27T00:15:35.658Z,89.88
2017-12-27T00:18:08.754Z,89.59
2017-12-27T00:20:41.891Z,89.32
2017-12-27T00:23:14.941Z,89.47
2017-12-27T00:25:48.071Z,89.27
2017-12-27T00:28:21.254Z,89.36
2017-12-27T00:30:51.235Z,89.12
2017-12-27T00:33:18.764Z,88.98
2017-12-27T00:35:46.400Z,89.52
2017-12-27T00:38:13.988Z,89.38
2017-12-27T00:40:41.702Z,89.60
2017-12-27T00:43:09.248Z,88.93
2017-12-27T00:45:36.894Z,89.33
2017-12-27T00:48:04.566Z,88.81
2017-12-27T00:50:32.101Z,89.02
2017-12-27T00:52:59.700Z,88.75
2017-12-27T00:55:27.224Z,88.61
2017-12-27T00:57:54.752Z,88.68
2017-12-27T01:00:22.319Z,88.73
2017-12-27T01:02:49.878Z,88.73
2017-12-27T01:05:17.487Z,88.80
2017-12-27T01:07:45.059Z,88.64
2017-12-27T01:10:12.612Z,88.55
2017-12-27T01:12:40.146Z,88.60
2017-12-27T01:15:07.689Z,88.63
2017-12-27T01:17:35.235Z,88.45
2017-12-27T01:20:02.827Z,88.61
2017-12-27T01:22:30.337Z,88.50
2017-12-27T01:24:57.909Z,88.74
2017-12-27T01:27:25.458Z,88.57
2017-12-27T01:29:53.010Z,88.31
2017-12-27T01:32:20.543Z,88.60
2017-12-27T01:34:48.086Z,88.75
2017-12-27T01:37:15.615Z,88.37
2017-12-27T01:39:43.181Z,88.48
2017-12-27T01:42:10.777Z,88.60
2017-12-27T01:44:38.321Z,88.58
2017-12-27T01:47:11.985Z,88.81
2017-12-27T01:49:39.501Z,88.91
2017-12-27T01:52:07.033Z,88.73
2017-12-27T01:54:34.617Z,89.07
2017-12-27T01:57:02.245Z,88.88
2017-12-27T01:59:29.921Z,88.74
2017-12-27T02:01:57.465Z,88.93
2017-12-27T02:04:25.071Z,88.46
2017-12-27T02:06:52.851Z,88.24
2017-12-27T02:09:20.420Z,88.84
2017-12-27T02:11:47.961Z,88.61
2017-12-27T02:14:15.524Z,88.62
2017-12-27T02:16:43.133Z,88.72
2017-12-27T02:19:10.702Z,88.51
2017-12-27T02:21:38.236Z,88.48
2017-12-27T02:24:05.955Z,88.42
2017-12-27T02:26:33.459Z,88.59
2017-12-27T02:29:00.988Z,89.03
2017-12-27T02:31:28.555Z,88.74
2017-12-27T02:33:56.074Z,88.35
2017-12-27T02:36:23.607Z,88.77
2017-12-27T02:38:57.105Z,88.92
2017-12-27T02:41:24.802Z,88.69
2017-12-27T02:43:52.356Z,88.44
2017-12-27T02:46:19.856Z,88.55
2017-12-27T02:48:47.420Z,88.39
2017-12-27T02:51:14.936Z,88.03
2017-12-27T02:53:42.530Z,88.06
2017-12-27T02:56:10.073Z,87.76
2017-12-27T02:58:37.639Z,87.66
2017-12-27T03:01:05.518Z,88.18
2017-12-27T03:03:33.231Z,88.45
2017-12-27T03:06:00.772Z,88.30
2017-12-27T03:08:28.303Z,88.41
2017-12-27T03:10:55.836Z,88.59
2017-12-27T03:13:23.376Z,89.18
2017-12-27T03:15:50.922Z,88.96
2017-12-27T03:18:18.450Z,89.13
2017-12-27T03:20:46.002Z,89.23
2017-12-27T03:23:13.539Z,89.15
2017-12-27T03:25:41.031Z,88.89
2017-12-27T03:28:08.692Z,88.90
2017-12-27T03:30:36.208Z,88.67
2017-12-27T03:33:03.721Z,88.87
2017-12-27T03:35:31.306Z,89.34
2017-12-27T03:37:58.859Z,89.95
2017-12-27T03:40:26.420Z,89.68
2017-12-27T03:42:54.138Z,89.26
2017-12-27T03:45:21.687Z,89.29
2017-12-27T03:47:49.248Z,90.03
2017-12-27T03:50:16.790Z,89.79
2017-12-27T03:52:44.328Z,89.60
2017-12-27T03:55:11.856Z,89.20
2017-12-27T03:57:39.362Z,88.97
2017-12-27T04:00:07.040Z,89.14
2017-12-27T04:02:34.621Z,88.55
2017-12-27T04:05:02.173Z,87.83
2017-12-27T04:07:29.750Z,87.63
2017-12-27T04:09:57.282Z,87.02
2017-12-27T04:12:24.786Z,87.06
2017-12-27T04:14:52.353Z,87.25
2017-12-27T04:17:19.859Z,86.53
2017-12-27T04:19:47.369Z,86.71
2017-12-27T04:22:14.962Z,86.41
2017-12-27T04:24:42.483Z,86.17
2017-12-27T04:27:09.991Z,85.90
2017-12-27T04:29:37.550Z,85.80
2017-12-27T04:32:05.157Z,85.71
2017-12-27T04:34:32.697Z,85.18
2017-12-27T04:37:00.244Z,85.18
2017-12-27T04:39:27.816Z,85.26
2017-12-27T04:41:55.374Z,85.27
2017-12-27T04:44:22.866Z,85.31
2017-12-27T04:46:50.441Z,85.12
2017-12-27T04:49:18.020Z,85.36
2017-12-27T04:51:45.583Z,84.99
2017-12-27T04:54:13.121Z,84.90
2017-12-27T04:56:40.694Z,84.99
2017-12-27T04:59:08.272Z,85.12
2017-12-27T05:01:35.804Z,84.75
2017-12-27T05:04:03.409Z,84.84
2017-12-27T05:06:30.914Z,85.30
2017-12-27T05:08:58.406Z,85.29
2017-12-27T05:11:25.974Z,85.92
2017-12-27T05:13:53.525Z,86.35
2017-12-27T05:16:21.073Z,86.00
2017-12-27T05:18:48.664Z,86.31
2017-12-27T05:21:16.248Z,87.26
2017-12-27T05:23:43.809Z,87.86
2017-12-27T05:26:11.382Z,88.55
2017-12-27T05:28:38.946Z,89.18
2017-12-27T05:31:06.475Z,89.77
2017-12-27T05:33:33.979Z,89.42
2017-12-27T05:36:01.507Z,90.14
2017-12-27T05:38:29.019Z,90.42
2017-12-27T05:40:56.613Z,90.89
2017-12-27T05:43:24.158Z,91.42
2017-12-27T05:45:51.663Z,90.98
2017-12-27T05:48:19.262Z,91.32
2017-12-27T05:50:46.775Z,92.68
2017-12-27T05:53:14.279Z,91.09
2017-12-27T05:55:41.834Z,91.13
2017-12-27T05:58:09.498Z,92.04
2017-12-27T06:00:37.003Z,92.48
2017-12-27T06:03:04.578Z,93.16
2017-12-27T06:05:32.121Z,93.14
2017-12-27T06:07:59.619Z,92.54
2017-12-27T06:10:27.297Z,93.14
2017-12-27T06:12:54.844Z,92.72
2017-12-27T06:15:22.386Z,93.18
2017-12-27T06:17:49.981Z,92.42
2017-12-27T06:20:17.490Z,92.40
2017-12-27T06:22:44.982Z,91.78
2017-12-27T06:25:12.540Z,91.81
2017-12-27T06:27:40.044Z,92.42
2017-12-27T06:30:07.544Z,92.43
2017-12-27T06:32:35.343Z,91.62
2017-12-27T06:35:02.893Z,91.13
2017-12-27T06:37:30.390Z,91.05
2017-12-27T06:39:57.919Z,91.02
2017-12-27T06:42:25.427Z,91.15
2017-12-27T06:44:52.976Z,90.82
2017-12-27T06:47:20.550Z,90.25
2017-12-27T06:49:48.047Z,90.11
2017-12-27T06:52:15.570Z,89.60
2017-12-27T06:54:43.079Z,89.95
2017-12-27T06:57:10.641Z,89.91
2017-12-27T06:59:38.196Z,88.95
2017-12-27T07:02:05.810Z,89.31
2017-12-27T07:04:33.364Z,89.92
2017-12-27T07:07:00.898Z,89.27
2017-12-27T07:09:28.497Z,89.47
2017-12-27T07:11:56.045Z,89.32
2017-12-27T07:14:23.779Z,89.29
2017-12-27T07:16:51.353Z,89.43
2017-12-27T07:19:18.893Z,88.96
2017-12-27T07:21:46.404Z,89.37
2017-12-27T07:24:13.969Z,89.17
2017-12-27T07:26:41.532Z,89.68
2017-12-27T07:29:09.039Z,89.29
2017-12-27T07:31:36.643Z,89.29
2017-12-27T07:34:04.164Z,89.81
2017-12-27T07:36:31.697Z,89.55
2017-12-27T07:38:59.406Z,90.07
2017-12-27T07:41:26.936Z,90.69
2017-12-27T07:43:54.648Z,90.12
2017-12-27T07:46:22.219Z,90.45
2017-12-27T07:48:49.806Z,90.93
2017-12-27T07:51:17.361Z,90.77
2017-12-27T07:53:44.879Z,91.40
2017-12-27T07:56:12.441Z,91.57
2017-12-27T07:58:40.038Z,91.91
2017-12-27T08:01:07.769Z,92.28
2017-12-27T08:03:35.743Z,92.66
2017-12-27T08:06:03.300Z,92.94
2017-12-27T08:08:30.842Z,93.29
2017-12-27T08:10:58.675Z,93.25
2017-12-27T08:13:26.221Z,93.03
2017-12-27T08:15:53.763Z,93.15
2017-12-27T08:18:21.336Z,93.14
2017-12-27T08:20:48.877Z,93.30
2017-12-27T08:23:16.385Z,93.40
2017-12-27T08:25:43.916Z,93.88
2017-12-27T08:28:11.453Z,93.78
2017-12-27T08:30:39.029Z,93.23
2017-12-27T08:33:06.544Z,93.46
2017-12-27T08:35:34.094Z,93.73
2017-12-27T08:38:01.655Z,94.31
2017-12-27T08:40:29.218Z,94.20
2017-12-27T08:42:56.735Z,94.84
2017-12-27T08:45:24.497Z,94.62
2017-12-27T08:47:52.040Z,94.15
2017-12-27T08:50:19.736Z,94.56
2017-12-27T08:52:47.286Z,94.67
2017-12-27T08:55:14.829Z,94.45
2017-12-27T08:57:42.452Z,94.66
2017-12-27T09:00:09.996Z,94.82
2017-12-27T09:02:37.589Z,94.80
2017-12-27T09:05:05.143Z,94.54
2017-12-27T09:07:32.647Z,95.31
2017-12-27T09:10:00.244Z,95.48
2017-12-27T09:12:27.891Z,95.29
2017-12-27T09:14:55.437Z,95.54
2017-12-27T09:17:22.962Z,95.89
2017-12-27T09:19:50.611Z,95.89
2017-12-27T09:22:18.287Z,95.16
2017-12-27T09:24:45.795Z,95.51
2017-12-27T09:27:13.397Z,95.55
2017-12-27T09:29:40.929Z,95.98
2017-12-27T09:32:08.456Z,95.88
2017-12-27T09:34:36.036Z,96.16
2017-12-27T09:37:03.624Z,96.32
2017-12-27T09:39:31.173Z,96.15
2017-12-27T09:41:58.746Z,95.81
2017-12-27T09:44:26.239Z,95.75
2017-12-27T09:46:53.844Z,95.69
2017-12-27T09:49:21.382Z,95.60
2017-12-27T09:51:48.943Z,95.58
2017-12-27T09:54:16.546Z,95.78
2017-12-27T09:56:44.094Z,96.05
2017-12-27T09:59:11.638Z,96.00
2017-12-27T10:01:39.208Z,95.45
2017-12-27T10:04:06.755Z,95.28
2017-12-27T10:06:34.399Z,95.28
2017-12-27T10:09:02.081Z,95.27
2017-12-27T10:11:29.642Z,95.30
2017-12-27T10:13:57.221Z,95.00
2017-12-27T10:16:24.817Z,94.85
2017-12-27T10:18:52.411Z,94.67
2017-12-27T10:21:19.978Z,95.50
2017-12-27T10:23:47.507Z,95.32
2017-12-27T10:26:15.192Z,94.38
2017-12-27T10:28:42.863Z,95.04
2017-12-27T10:31:13.511Z,95.24
2017-12-27T10:33:41.185Z,95.64
2017-12-27T10:36:08.695Z,95.71
2017-12-27T10:38:36.328Z,95.03
2017-12-27T10:41:03.871Z,95.00
2017-12-27T10:43:31.420Z,94.85
2017-12-27T10:45:58.939Z,95.07
2017-12-27T10:48:26.537Z,94.48
2017-12-27T10:50:54.302Z,95.37
2017-12-27T10:53:22.714Z,95.73
2017-12-27T10:55:50.243Z,95.36
2017-12-27T10:58:17.869Z,95.62
2017-12-27T11:00:45.391Z,95.44
2017-12-27T11:03:12.999Z,95.19
2017-12-27T11:05:40.767Z,95.32
2017-12-27T11:08:08.541Z,96.00
2017-12-27T11:10:36.152Z,95.10
2017-12-27T11:13:03.671Z,94.92
2017-12-27T11:15:31.209Z,95.43
2017-12-27T11:17:58.763Z,96.35
2017-12-27T11:20:26.400Z,95.78
2017-12-27T11:22:53.950Z,94.73
2017-12-27T11:25:21.511Z,95.41
2017-12-27T11:27:49.055Z,95.31
2017-12-27T11:30:16.613Z,95.17
2017-12-27T11:32:44.233Z,95.18
2017-12-27T11:35:11.748Z,94.90
2017-12-27T11:37:39.302Z,95.51
2017-12-27T11:40:06.871Z,95.03
2017-12-27T11:42:34.558Z,94.22
2017-12-27T11:45:02.103Z,94.39
2017-12-27T11:47:29.682Z,95.61
2017-12-27T11:49:57.246Z,94.79
2017-12-27T11:52:24.854Z,94.98
2017-12-27T11:54:52.528Z,94.74
2017-12-27T11:57:20.075Z,95.81
2017-12-27T11:59:47.649Z,95.48
2017-12-27T12:02:15.455Z,95.22
2017-12-27T12:04:43.026Z,94.63
2017-12-27T12:07:10.542Z,94.50
2017-12-27T12:09:38.117Z,95.54
2017-12-27T12:12:05.633Z,94.77
2017-12-27T12:14:33.222Z,94.46
2017-12-27T12:17:00.994Z,94.79
2017-12-27T12:19:28.835Z,94.20
2017-12-27T12:21:56.537Z,94.37
2017-12-27T12:24:24.074Z,94.42
2017-12-27T12:26:51.652Z,94.82
2017-12-27T12:29:19.180Z,94.17
2017-12-27T12:31:46.713Z,94.41
2017-12-27T12:34:14.280Z,94.94
2017-12-27T12:36:41.836Z,94.44
2017-12-27T12:39:09.356Z,95.03
2017-12-27T12:41:36.883Z,95.24
2017-12-27T12:44:04.444Z,95.16
2017-12-27T12:46:31.998Z,95.83
2017-12-27T12:48:59.710Z,94.61
2017-12-27T12:51:27.268Z,94.94
2017-12-27T12:53:54.821Z,95.49
2017-12-27T12:56:22.414Z,96.38
2017-12-27T12:58:49.933Z,96.75
2017-12-27T13:01:17.481Z,96.42
2017-12-27T13:03:45.069Z,96.17
2017-12-27T13:06:12.580Z,95.16
2017-12-27T13:08:40.084Z,96.54
2017-12-27T13:11:07.685Z,96.34
2017-12-27T13:13:35.265Z,96.40
2017-12-27T13:16:02.808Z,96.06
2017-12-27T13:18:30.369Z,94.99
2017-12-27T13:20:57.926Z,95.74
2017-12-27T13:23:25.494Z,96.25
2017-12-27T13:25:53.066Z,96.30
2017-12-27T13:28:20.662Z,96.55
2017-12-27T13:30:48.215Z,96.27
2017-12-27T13:33:15.817Z,96.30
2017-12-27T13:35:43.324Z,95.76
2017-12-27T13:38:11.886Z,96.25
2017-12-27T13:40:39.706Z,96.19
2017-12-27T13:43:09.738Z,95.83
2017-12-27T13:45:37.512Z,96.86
2017-12-27T13:48:07.302Z,96.76
2017-12-27T13:50:38.002Z,95.93
2017-12-27T13:53:05.769Z,96.56
2017-12-27T13:55:33.339Z,96.16
2017-12-27T13:58:00.981Z,95.69
2017-12-27T14:00:28.683Z,95.79
2017-12-27T14:02:56.356Z,95.77
2017-12-27T14:05:26.839Z,95.58
2017-12-27T14:07:54.597Z,95.77
2017-12-27T14:10:22.251Z,95.31
2017-12-27T14:12:49.809Z,94.99
2017-12-27T14:15:17.416Z,95.00
2017-12-27T14:17:44.975Z,95.15
2017-12-27T14:20:12.483Z,93.82
2017-12-27T14:22:40.086Z,94.78
2017-12-27T14:25:07.625Z,94.66
2017-12-27T14:27:35.190Z,94.97
2017-12-27T14:30:02.836Z,95.58
2017-12-27T14:32:30.377Z,95.63
2017-12-27T14:34:58.089Z,95.62
2017-12-27T14:37:25.853Z,95.23
2017-12-27T14:39:53.410Z,95.14
2017-12-27T14:42:21.007Z,95.71
2017-12-27T14:44:48.524Z,95.39
2017-12-27T14:47:16.066Z,95.87
2017-12-27T14:49:43.718Z,95.60
2017-12-27T14:52:11.283Z,95.47
2017-12-27T14:54:38.796Z,95.48
2017-12-27T14:57:06.427Z,95.98
2017-12-27T14:59:34.014Z,96.21
2017-12-27T15:02:01.533Z,96.57
2017-12-27T15:04:29.073Z,96.03
2017-12-27T15:06:56.686Z,96.52
2017-12-27T15:09:24.196Z,95.95
2017-12-27T15:11:51.763Z,96.32
2017-12-27T15:14:19.337Z,96.56
2017-12-27T15:16:46.906Z,96.58
2017-12-27T15:19:14.614Z,96.46
2017-12-27T15:21:42.162Z,96.41
2017-12-27T15:24:09.687Z,96.69
2017-12-27T15:26:37.216Z,96.74
2017-12-27T15:29:04.802Z,96.66
2017-12-27T15:31:32.480Z,97.00
2017-12-27T15:34:01.069Z,96.94
2017-12-27T15:36:28.810Z,96.93
2017-12-27T15:38:56.342Z,96.93
2017-12-27T15:41:23.894Z,96.97
2017-12-27T15:43:51.441Z,97.07
2017-12-27T15:46:21.781Z,96.60
2017-12-27T15:48:49.568Z,96.35
2017-12-27T15:51:17.120Z,95.87
2017-12-27T15:53:44.827Z,95.84
2017-12-27T15:56:12.402Z,95.54
2017-12-27T15:58:39.948Z,95.98
2017-12-27T16:01:07.528Z,95.96
2017-12-27T16:03:37.086Z,95.93
2017-12-27T16:06:04.902Z,95.76
2017-12-27T16:08:32.498Z,95.70
2017-12-27T16:10:59.998Z,95.77
2017-12-27T16:13:27.577Z,95.65
2017-12-27T16:15:55.185Z,95.62
2017-12-27T16:18:22.714Z,95.61
2017-12-27T16:20:50.283Z,94.89
2017-12-27T16:23:17.863Z,95.47
2017-12-27T16:25:45.413Z,95.06
2017-12-27T16:28:13.005Z,94.71
2017-12-27T16:30:40.644Z,94.92
2017-12-27T16:33:08.360Z,95.00
2017-12-27T16:35:35.949Z,95.03
2017-12-27T16:38:03.540Z,95.31
2017-12-27T16:40:31.059Z,94.87
2017-12-27T16:42:58.602Z,94.59
2017-12-27T16:45:26.197Z,94.11
2017-12-27T16:47:53.695Z,94.22
2017-12-27T16:50:21.238Z,94.08
2017-12-27T16:52:48.978Z,93.81
2017-12-27T16:55:16.529Z,93.84
2017-12-27T16:57:44.035Z,94.13
2017-12-27T17:00:11.640Z,93.73
2017-12-27T17:02:39.135Z,93.78
2017-12-27T17:05:06.686Z,93.65
2017-12-27T17:07:34.241Z,93.92
2017-12-27T17:10:01.823Z,94.02
2017-12-27T17:12:29.331Z,93.82
2017-12-27T17:14:56.916Z,93.80
2017-12-27T17:17:24.505Z,93.67
2017-12-27T17:19:52.025Z,93.71
2017-12-27T17:22:19.585Z,93.96
2017-12-27T17:24:47.128Z,93.98
2017-12-27T17:27:14.666Z,93.84
2017-12-27T17:29:42.235Z,93.72
2017-12-27T17:32:09.741Z,93.71
2017-12-27T17:34:37.371Z,93.94
2017-12-27T17:37:04.976Z,94.39
2017-12-27T17:39:32.492Z,93.54
2017-12-27T17:42:00.074Z,93.73
2017-12-27T17:44:27.673Z,94.04
2017-12-27T17:46:55.199Z,94.24
2017-12-27T17:49:22.778Z,94.50
2017-12-27T17:51:50.409Z,94.67
2017-12-27T17:54:18.174Z,95.08
2017-12-27T17:56:45.725Z,94.77
2017-12-27T17:59:13.297Z,94.85
2017-12-27T18:01:40.846Z,94.68
2017-12-27T18:04:08.385Z,94.85
2017-12-27T18:06:35.948Z,94.55
2017-12-27T18:09:03.532Z,94.89
2017-12-27T18:11:31.089Z,95.27
2017-12-27T18:13:58.694Z,95.47
2017-12-27T18:16:26.431Z,96.04
2017-12-27T18:18:54.056Z,96.07
2017-12-27T18:21:21.812Z,95.88
2017-12-27T18:23:49.345Z,95.99
2017-12-27T18:26:16.919Z,96.79
2017-12-27T18:28:44.467Z,96.79
2017-12-27T18:31:12.013Z,96.67
2017-12-27T18:33:39.559Z,96.83
2017-12-27T18:36:07.222Z,97.03
2017-12-27T18:38:34.813Z,97.35
2017-12-27T18:41:02.353Z,97.31
2017-12-27T18:43:29.866Z,97.08
2017-12-27T18:45:57.613Z,97.36
2017-12-27T18:48:25.137Z,97.43
2017-12-27T18:50:52.706Z,97.19
2017-12-27T18:53:20.250Z,96.79
2017-12-27T18:55:48.011Z,95.94
2017-12-27T18:58:15.612Z,95.84
2017-12-27T19:00:43.160Z,96.16
2017-12-27T19:03:10.728Z,96.31
2017-12-27T19:05:38.269Z,96.57
2017-12-27T19:08:05.820Z,96.20
2017-12-27T19:10:33.340Z,96.75
2017-12-27T19:13:00.889Z,97.25
2017-12-27T19:15:28.597Z,97.33
2017-12-27T19:17:56.225Z,97.43
2017-12-27T19:20:23.804Z,97.12
2017-12-27T19:22:51.622Z,97.05
2017-12-27T19:25:19.298Z,97.01
2017-12-27T19:27:46.967Z,97.11
2017-12-27T19:30:14.496Z,97.17
2017-12-27T19:32:42.044Z,96.69
2017-12-27T19:35:09.682Z,96.61
2017-12-27T19:37:37.261Z,96.12
2017-12-27T19:40:04.932Z,95.21
2017-12-27T19:42:32.618Z,95.60
2017-12-27T19:45:00.157Z,95.20
2017-12-27T19:47:27.676Z,95.42
2017-12-27T19:49:55.239Z,94.56
2017-12-27T19:52:22.902Z,94.71
2017-12-27T19:54:50.576Z,94.00
2017-12-27T19:57:18.127Z,93.26
2017-12-27T19:59:45.672Z,93.59
2017-12-27T20:02:13.433Z,94.07
2017-12-27T20:04:41.004Z,93.75
2017-12-27T20:07:08.703Z,93.01
2017-12-27T20:09:36.261Z,93.39
2017-12-27T20:12:03.870Z,93.55
2017-12-27T20:14:31.461Z,92.64
2017-12-27T20:16:59.251Z,92.78
2017-12-27T20:19:26.981Z,91.95
2017-12-27T20:21:54.599Z,93.60
2017-12-27T20:24:22.378Z,94.46
2017-12-27T20:26:50.110Z,93.58
2017-12-27T20:29:17.778Z,93.71
2017-12-27T20:31:45.303Z,93.80
2017-12-27T20:34:12.971Z,94.43
2017-12-27T20:36:40.583Z,93.42
2017-12-27T20:39:08.226Z,93.66
2017-12-27T20:41:35.748Z,93.90
2017-12-27T20:44:03.372Z,94.71
2017-12-27T20:46:31.159Z,95.28
2017-12-27T20:48:58.828Z,94.94
2017-12-27T20:51:26.396Z,94.62
2017-12-27T20:53:53.912Z,94.52
2017-12-27T20:56:21.428Z,94.60
2017-12-27T20:58:49.330Z,94.48
2017-12-27T21:01:16.909Z,95.12
2017-12-27T21:03:44.574Z,97.17
2017-12-27T21:06:12.474Z,95.96
2017-12-27T21:08:40.343Z,95.07
2017-12-27T21:11:08.056Z,95.95
2017-12-27T21:13:35.610Z,95.44
2017-12-27T21:16:03.253Z,95.70
2017-12-27T21:18:31.036Z,96.16
2017-12-27T21:20:58.616Z,96.49
2017-12-27T21:23:26.280Z,96.74
2017-12-27T21:25:54.061Z,97.04
2017-12-27T21:28:21.744Z,97.15
2017-12-27T21:30:49.433Z,96.92
2017-12-27T21:33:17.008Z,97.81
2017-12-27T21:35:44.772Z,98.11
2017-12-27T21:38:12.548Z,98.80
2017-12-27T21:40:40.212Z,98.72
2017-12-27T21:43:07.734Z,98.87
2017-12-27T21:45:35.285Z,98.57
2017-12-27T21:48:08.309Z,99.47
2017-12-27T21:50:36.047Z,99.99
2017-12-27T21:53:03.791Z,100.00
2017-12-27T21:55:31.495Z,100.00
2017-12-27T21:58:04.575Z,100.00
2017-12-27T22:00:37.594Z,100.00
2017-12-27T22:03:05.170Z,99.68
2017-12-27T22:05:32.958Z,99.48
2017-12-27T22:08:00.506Z,99.39
2017-12-27T22:10:28.039Z,99.24
2017-12-27T22:12:55.582Z,100.00
2017-12-27T22:15:23.107Z,99.96
2017-12-27T22:17:50.627Z,100.00
2017-12-27T22:20:23.838Z,99.70
2017-12-27T22:22:51.854Z,99.35
2017-12-27T22:25:19.418Z,99.12
2017-12-27T22:27:46.944Z,99.16
2017-12-27T22:30:14.537Z,98.61
2017-12-27T22:32:42.073Z,98.36
2017-12-27T22:35:09.580Z,98.71
2017-12-27T22:37:37.103Z,98.66
2017-12-27T22:40:04.781Z,97.83
2017-12-27T22:42:32.425Z,97.00
2017-12-27T22:44:59.943Z,97.53
2017-12-27T22:47:27.511Z,96.76
2017-12-27T22:49:55.090Z,96.46
2017-12-27T22:52:22.612Z,96.59
2017-12-27T22:54:50.171Z,96.62
2017-12-27T22:57:17.709Z,96.41
2017-12-27T22:59:45.269Z,96.29
2017-12-27T23:02:12.801Z,96.58
2017-12-27T23:04:40.337Z,96.31
2017-12-27T23:07:07.872Z,94.78
2017-12-27T23:09:35.473Z,95.87
2017-12-27T23:12:03.026Z,94.91
2017-12-27T23:14:30.535Z,94.88
2017-12-27T23:16:58.129Z,94.97
2017-12-27T23:19:25.920Z,95.26
2017-12-27T23:21:53.503Z,94.61
2017-12-27T23:24:22.149Z,95.46
2017-12-27T23:26:49.703Z,96.03
2017-12-27T23:29:17.333Z,94.59
2017-12-27T23:31:44.896Z,95.56
2017-12-27T23:34:12.484Z,95.81
2017-12-27T23:36:40.038Z,95.70
2017-12-27T23:39:07.552Z,95.28
2017-12-27T23:41:35.113Z,95.78
2017-12-27T23:44:02.730Z,96.06
2017-12-27T23:46:30.244Z,96.30
2017-12-27T23:48:58.641Z,96.34
2017-12-27T23:51:26.242Z,96.61
2017-12-27T23:53:54.876Z,96.72
2017-12-27T23:56:22.391Z,96.88
2017-12-27T23:58:49.997Z,97.15
